createdAt,value
2023-04-07T00:00:55.538Z,9.59
2023-04-07T00:15:46.410Z,9.56
2023-04-07T00:30:37.776Z,9.51
2023-04-07T00:45:28.827Z,9.54
2023-04-07T01:00:19.845Z,9.51
2023-04-07T01:15:12.039Z,9.52
2023-04-07T02:44:16.931Z,9.35
2023-04-07T02:59:06.686Z,9.25
2023-04-07T03:13:57.031Z,9.15
2023-04-07T03:28:47.797Z,9.10
2023-04-07T03:43:38.728Z,9.09
2023-04-07T03:58:29.759Z,8.96
2023-04-07T04:13:20.545Z,9.00
2023-04-07T04:28:11.008Z,8.93
2023-04-07T04:43:02.036Z,8.94
2023-04-07T04:57:52.468Z,8.90
2023-04-07T05:12:43.834Z,8.94
2023-04-07T05:27:35.703Z,9.01
2023-04-07T05:42:25.812Z,9.03
2023-04-07T05:57:16.403Z,9.08
2023-04-07T06:12:08.001Z,9.32
2023-04-07T06:26:58.805Z,9.53
2023-04-07T06:41:49.408Z,9.73
2023-04-07T06:56:41.703Z,9.91
2023-04-07T07:11:32.727Z,10.38
2023-04-07T07:26:24.600Z,10.75
2023-04-07T07:41:15.992Z,10.92
2023-04-07T07:56:06.625Z,11.04
2023-04-07T08:40:40.912Z,11.87
2023-04-07T09:10:24.589Z,12.08
2023-04-07T10:09:51.978Z,13.43
2023-04-07T12:09:29.985Z,15.61
2023-04-07T12:24:24.191Z,15.30
2023-04-07T12:54:33.163Z,13.03
2023-04-07T13:24:12.786Z,13.06
2023-04-07T13:39:03.955Z,13.18
2023-04-07T13:53:55.416Z,13.36
2023-04-07T14:08:47.180Z,13.48
2023-04-07T14:23:39.620Z,13.84
2023-04-07T14:38:34.705Z,13.94
2023-04-07T14:53:22.532Z,13.48
2023-04-07T15:08:12.329Z,12.99
2023-04-07T15:23:01.771Z,12.51
2023-04-07T15:37:51.360Z,11.92
2023-04-07T15:52:42.508Z,12.01
2023-04-07T16:07:34.630Z,12.08
2023-04-07T16:22:29.629Z,12.26
2023-04-07T16:37:22.733Z,12.37
2023-04-07T16:52:13.238Z,12.58
2023-04-07T17:07:03.931Z,12.69
2023-04-07T17:21:54.483Z,12.56
2023-04-07T17:36:45.055Z,12.44
2023-04-07T17:51:36.613Z,12.39
2023-04-07T18:06:27.810Z,12.29
2023-04-07T18:21:18.587Z,12.30
2023-04-07T18:36:09.648Z,12.22
2023-04-07T18:51:00.553Z,12.20
2023-04-07T19:05:52.792Z,12.11
2023-04-07T19:20:43.498Z,12.06
2023-04-07T19:35:34.698Z,11.97
2023-04-07T19:50:25.798Z,11.89
2023-04-07T20:20:08.424Z,11.74
2023-04-07T21:04:42.067Z,11.40
2023-04-07T21:19:32.619Z,11.33
2023-04-07T21:49:24.706Z,11.26
2023-04-07T22:04:16.934Z,11.24
2023-04-07T22:19:09.252Z,11.25
2023-04-07T22:33:59.854Z,11.21
2023-04-07T22:48:51.966Z,11.11
2023-04-07T23:03:43.046Z,11.03
2023-04-07T23:18:33.973Z,10.96
2023-04-07T23:33:25.652Z,10.94
2023-04-07T23:48:16.433Z,10.82
